»·PEaware :: STRYK11 KTNX-KSFO

STRYK11 :: KTNX-KSFO

FLIGHT INFORMATION

Flight Status: Arrived
Operator: Unknown
More flights by this operator :: More flights under this callsign
Pilot: Kevin M. (7)
Aircraft: Unknown
(F35)
More flights by this aircraft type
Origin: KTNX Tonopah Test Range
United States
Destination: KSFO San Francisco Intl
United States
More flights between these airports :: More routes between these airports
Route: RUSME DYAMD5
File this flight plan on PilotEdge
Remarks:
Altitude:
(Current/Filed)
36,000ft
Speed:
(Current/Filed)
550kts
Departed: 01-Oct-19 11:16 AM
Arrived: 01-Oct-19 11:52 AM
Distance/Time
Traveled:
266nm/0:36
Distance/Time
To Go:
Arrived

Flight Plot

Page will automatically refresh every two minutes.

Flight plan parsing failed; only flown route is shown


Map Options




Map Legend


Flown Route
Filed Route
Departure Airport
Arrival Airport
Navaid (VOR, NDB)
Fix

Horizontal Profiles

Position Reports

Time Latitude Longitude Heading Altitude Ground
Speed
01-Oct-19 11:07 37.791665 -116.770603 248 5555ft 0kts
01-Oct-19 11:08 37.791665 -116.770603 248 5555ft 0kts
01-Oct-19 11:09 37.791665 -116.770603 248 5555ft 0kts
01-Oct-19 11:10 37.791665 -116.770603 248 5555ft 0kts
01-Oct-19 11:11 37.791665 -116.770603 248 5555ft 0kts
01-Oct-19 11:12 37.792860 -116.771440 262 5555ft 11kts
01-Oct-19 11:13 37.790989 -116.772392 151 5555ft 19kts
01-Oct-19 11:14 37.785816 -116.769665 155 5555ft 21kts
01-Oct-19 11:15 37.784680 -116.773245 336 5555ft 44kts
01-Oct-19 11:16 37.841490 -116.805814 330 14656ft 323kts
01-Oct-19 11:17 37.925787 -116.862166 310 28688ft 406kts
01-Oct-19 11:18 37.987966 -117.021753 265 33075ft 560kts
01-Oct-19 11:19 37.976662 -117.221867 263 36014ft 581kts
01-Oct-19 11:20 37.961369 -117.426196 262 36036ft 581kts
01-Oct-19 11:21 37.945890 -117.629705 262 36034ft 581kts
01-Oct-19 11:22 37.930118 -117.832588 262 36034ft 580kts
01-Oct-19 11:23 37.913965 -118.035742 262 36030ft 582kts
01-Oct-19 11:24 37.897418 -118.238972 262 36028ft 580kts
01-Oct-19 11:25 37.880555 -118.442240 262 36041ft 581kts
01-Oct-19 11:26 37.863334 -118.645108 262 36060ft 581kts
01-Oct-19 11:27 37.845623 -118.848446 262 36068ft 580kts
01-Oct-19 11:28 37.827502 -119.053479 265 36062ft 599kts
01-Oct-19 11:30 37.808806 -119.262232 265 36060ft 597kts
01-Oct-19 11:31 37.788919 -119.478551 265 36074ft 655kts
01-Oct-19 11:32 37.765766 -119.724902 264 36076ft 739kts
01-Oct-19 11:33 37.740726 -119.985143 264 36050ft 747kts
01-Oct-19 11:34 37.715079 -120.245590 264 36044ft 747kts
01-Oct-19 11:35 37.687482 -120.504973 263 35267ft 739kts
01-Oct-19 11:36 37.657791 -120.757000 263 33245ft 713kts
01-Oct-19 11:37 37.630456 -120.981487 263 31181ft 622kts
01-Oct-19 11:38 37.604843 -121.172145 266 26858ft 470kts
01-Oct-19 11:39 37.557488 -121.316115 228 14727ft 511kts
01-Oct-19 11:40 37.454160 -121.379607 168 14068ft 405kts
01-Oct-19 11:41 37.368816 -121.438067 258 12871ft 362kts
01-Oct-19 11:42 37.396110 -121.552739 293 11565ft 340kts
01-Oct-19 11:43 37.430124 -121.667397 291 10248ft 359kts
01-Oct-19 11:44 37.462706 -121.779342 291 8796ft 316kts
01-Oct-19 11:45 37.491595 -121.882453 278 7369ft 309kts
01-Oct-19 11:46 37.497021 -121.983315 275 7066ft 272kts
01-Oct-19 11:47 37.502488 -122.078812 275 5893ft 279kts
01-Oct-19 11:48 37.537737 -122.175497 301 2897ft 323kts
01-Oct-19 11:49 37.571207 -122.257713 297 2064ft 247kts
01-Oct-19 11:49 37.594402 -122.312210 298 893ft 205kts
01-Oct-19 11:51 37.619597 -122.371558 298 15ft 129kts
01-Oct-19 11:52 37.626510 -122.381633 293 21ft 4kts
01-Oct-19 11:52 37.626545 -122.381740 291 21ft 0kts
01-Oct-19 11:53 37.626545 -122.381740 291 21ft 0kts
01-Oct-19 11:55 37.626545 -122.381740 291 21ft 0kts
01-Oct-19 11:55 37.626545 -122.381740 291 21ft 0kts
01-Oct-19 11:56 37.626545 -122.381740 291 21ft 0kts
01-Oct-19 11:58 37.626545 -122.381740 291 21ft 0kts
01-Oct-19 11:58 37.626545 -122.381740 291 21ft 0kts
01-Oct-19 11:59 37.626545 -122.381740 291 21ft 0kts
01-Oct-19 12:00 37.626545 -122.381740 291 21ft 0kts
01-Oct-19 12:01 37.626545 -122.381740 291 21ft 0kts
01-Oct-19 12:02 37.626545 -122.381740 291 21ft 0kts
01-Oct-19 12:03 37.626545 -122.381740 291 21ft 0kts
01-Oct-19 12:04 37.626545 -122.381740 291 21ft 0kts
01-Oct-19 12:05 37.626545 -122.381740 291 21ft 0kts
01-Oct-19 12:06 37.626545 -122.381740 291 21ft 0kts

Navigation Log

Ident Type
Flight plan parsing failed, navigation log unavailable